createdAt,value
2023-10-16T00:00:38.308Z,58.09
2023-10-16T00:01:38.282Z,56.08
2023-10-16T00:02:38.274Z,50.71
2023-10-16T00:03:38.296Z,51.17
2023-10-16T00:04:38.347Z,50.96
2023-10-16T00:05:38.231Z,50.86
2023-10-16T00:06:38.251Z,57.66
2023-10-16T00:07:38.216Z,60.11
2023-10-16T00:08:38.232Z,58.87
2023-10-16T00:09:38.264Z,57.79
2023-10-16T00:10:38.190Z,58.05
2023-10-16T00:11:38.175Z,58.31
2023-10-16T00:12:38.290Z,57.82
2023-10-16T00:13:38.197Z,58.07
2023-10-16T00:14:38.176Z,58.09
2023-10-16T00:15:38.257Z,58.51
2023-10-16T00:16:38.253Z,58.13
2023-10-16T00:17:38.195Z,58.51
2023-10-16T00:18:38.189Z,58.41
2023-10-16T00:19:38.140Z,58.44
2023-10-16T00:20:38.140Z,59.24
2023-10-16T00:21:38.138Z,58.71
2023-10-16T00:22:38.167Z,52.73
2023-10-16T00:23:38.118Z,51.37
2023-10-16T00:24:38.175Z,52.10
2023-10-16T00:25:38.122Z,52.18
2023-10-16T00:26:38.141Z,51.44
2023-10-16T00:27:38.107Z,54.68
2023-10-16T00:28:38.108Z,60.24
2023-10-16T00:29:38.088Z,59.82
2023-10-16T00:30:38.086Z,58.74
2023-10-16T00:31:38.127Z,58.35
2023-10-16T00:32:38.126Z,58.71
2023-10-16T00:33:38.094Z,58.18
2023-10-16T00:34:38.045Z,58.52
2023-10-16T00:35:38.028Z,58.55
2023-10-16T00:36:38.127Z,58.47
2023-10-16T00:37:38.021Z,58.50
2023-10-16T00:38:38.008Z,58.55
2023-10-16T00:39:38.094Z,58.01
2023-10-16T00:40:38.005Z,58.60
2023-10-16T00:41:38.019Z,58.03
2023-10-16T00:42:38.033Z,58.09
2023-10-16T00:43:37.994Z,54.57
2023-10-16T00:44:37.982Z,51.09
2023-10-16T00:45:38.023Z,51.01
2023-10-16T00:46:38.120Z,51.31
2023-10-16T00:47:38.044Z,54.46
2023-10-16T00:48:37.990Z,60.09
2023-10-16T00:49:37.946Z,59.83
2023-10-16T00:50:37.989Z,59.10
2023-10-16T00:51:40.966Z,57.45
2023-10-16T00:52:38.974Z,50.73
2023-10-16T00:53:37.924Z,50.83
2023-10-16T00:54:37.926Z,51.24
2023-10-16T00:55:37.941Z,55.96
2023-10-16T00:56:37.905Z,60.48
2023-10-16T00:57:37.962Z,59.76
2023-10-16T00:58:37.888Z,59.06
2023-10-16T00:59:37.911Z,58.61
2023-10-16T01:00:37.949Z,58.94
2023-10-16T01:01:37.909Z,59.03
2023-10-16T01:02:37.936Z,58.95
2023-10-16T01:03:38.085Z,58.79
2023-10-16T01:04:37.870Z,58.43
2023-10-16T01:05:37.835Z,58.55
2023-10-16T01:06:38.861Z,57.04
2023-10-16T01:07:37.821Z,50.90
2023-10-16T01:08:37.817Z,51.17
2023-10-16T01:09:38.060Z,51.44
2023-10-16T01:10:37.810Z,51.59
2023-10-16T01:11:37.792Z,55.91
2023-10-16T01:12:37.869Z,60.40
2023-10-16T01:13:38.864Z,59.86
2023-10-16T01:14:37.812Z,59.07
2023-10-16T01:15:37.818Z,58.61
2023-10-16T01:16:37.821Z,58.55
2023-10-16T01:17:37.808Z,58.58
2023-10-16T01:18:37.821Z,58.06
2023-10-16T01:19:37.752Z,50.68
2023-10-16T01:20:37.752Z,51.14
2023-10-16T01:21:37.758Z,51.39
2023-10-16T01:22:37.728Z,51.51
2023-10-16T01:23:37.742Z,54.24
2023-10-16T01:24:37.732Z,60.07
2023-10-16T01:25:37.740Z,60.41
2023-10-16T01:26:37.701Z,59.20
2023-10-16T01:27:37.755Z,58.17
2023-10-16T01:28:37.714Z,58.75
2023-10-16T01:29:37.726Z,58.17
2023-10-16T01:30:37.696Z,58.27
2023-10-16T01:31:37.728Z,58.99
2023-10-16T01:32:37.717Z,58.54
2023-10-16T01:33:37.690Z,58.68
2023-10-16T01:34:37.649Z,58.78
2023-10-16T01:35:37.648Z,58.82
2023-10-16T01:36:37.676Z,58.71
2023-10-16T01:37:37.647Z,58.67
2023-10-16T01:38:37.691Z,58.75
2023-10-16T01:39:37.634Z,58.86
2023-10-16T01:40:37.631Z,58.88
2023-10-16T01:41:37.622Z,58.84
2023-10-16T01:42:37.662Z,58.85
2023-10-16T01:43:37.591Z,59.01
2023-10-16T01:44:37.577Z,58.96
2023-10-16T01:45:38.662Z,58.84
2023-10-16T01:46:37.656Z,58.75
2023-10-16T01:47:37.599Z,58.83
2023-10-16T01:48:37.629Z,58.57
2023-10-16T01:49:37.559Z,58.16
2023-10-16T01:50:37.552Z,58.02
2023-10-16T01:51:37.578Z,57.89
2023-10-16T01:52:37.542Z,57.77
2023-10-16T01:53:37.531Z,57.92
2023-10-16T01:54:37.555Z,50.66
2023-10-16T01:55:37.541Z,51.79
2023-10-16T01:56:37.521Z,51.84
2023-10-16T01:57:37.560Z,54.60
2023-10-16T01:58:37.509Z,60.30
2023-10-16T01:59:37.499Z,60.54
2023-10-16T02:00:37.598Z,59.36
2023-10-16T02:01:37.540Z,58.88
2023-10-16T02:02:37.515Z,58.44
2023-10-16T02:03:37.565Z,58.56
2023-10-16T02:04:37.485Z,58.48
2023-10-16T02:05:37.492Z,58.45
2023-10-16T02:06:37.480Z,58.51
2023-10-16T02:07:37.455Z,58.57
2023-10-16T02:08:37.452Z,58.59
2023-10-16T02:09:37.518Z,58.81
2023-10-16T02:10:37.437Z,52.62
2023-10-16T02:11:37.421Z,51.32
2023-10-16T02:12:37.413Z,51.41
2023-10-16T02:13:37.407Z,51.62
2023-10-16T02:14:37.423Z,52.13
2023-10-16T02:15:37.506Z,58.41
2023-10-16T02:16:37.414Z,60.44
2023-10-16T02:17:37.410Z,59.70
2023-10-16T02:18:37.428Z,59.12
2023-10-16T02:19:37.399Z,52.33
2023-10-16T02:20:37.364Z,51.49
2023-10-16T02:21:37.419Z,52.64
2023-10-16T02:22:37.349Z,51.77
2023-10-16T02:23:37.385Z,56.20
2023-10-16T02:24:37.366Z,60.81
2023-10-16T02:25:37.333Z,60.33
2023-10-16T02:26:37.333Z,59.57
2023-10-16T02:27:37.375Z,59.15
2023-10-16T02:28:37.327Z,51.64
2023-10-16T02:29:37.304Z,51.53
2023-10-16T02:30:37.469Z,51.86
2023-10-16T02:31:37.338Z,51.98
2023-10-16T02:32:37.332Z,57.30
2023-10-16T02:33:37.315Z,60.70
2023-10-16T02:34:37.282Z,60.11
2023-10-16T02:35:37.277Z,59.41
2023-10-16T02:36:37.346Z,58.90
2023-10-16T02:37:37.299Z,58.86
2023-10-16T02:38:37.257Z,58.18
2023-10-16T02:39:37.259Z,57.84
2023-10-16T02:40:37.258Z,57.95
2023-10-16T02:41:37.234Z,54.30
2023-10-16T02:42:37.294Z,51.49
2023-10-16T02:43:37.219Z,50.92
2023-10-16T02:44:37.219Z,51.66
2023-10-16T02:45:37.234Z,58.89
2023-10-16T02:46:37.262Z,52.16
2023-10-16T02:47:37.244Z,51.79
2023-10-16T02:48:37.206Z,51.84
2023-10-16T02:49:37.187Z,58.83
2023-10-16T02:50:37.175Z,52.32
2023-10-16T02:51:37.290Z,51.76
2023-10-16T02:52:37.165Z,57.06
2023-10-16T02:53:37.164Z,60.92
2023-10-16T02:54:37.184Z,59.82
2023-10-16T02:55:37.143Z,59.30
2023-10-16T02:56:37.191Z,58.93
2023-10-16T02:57:37.165Z,58.64
2023-10-16T02:58:37.125Z,58.75
2023-10-16T02:59:37.129Z,51.39
2023-10-16T03:00:37.170Z,51.18
2023-10-16T03:01:37.165Z,51.61
2023-10-16T03:02:37.181Z,52.43
2023-10-16T03:03:37.149Z,55.06
2023-10-16T03:04:37.116Z,60.53
2023-10-16T03:05:37.104Z,60.45
2023-10-16T03:06:37.098Z,59.45
2023-10-16T03:07:37.067Z,58.84
2023-10-16T03:08:37.071Z,58.68
2023-10-16T03:09:37.095Z,58.85
2023-10-16T03:10:37.068Z,58.53
2023-10-16T03:11:37.036Z,58.66
2023-10-16T03:12:37.061Z,54.17
2023-10-16T03:13:37.186Z,52.92
2023-10-16T03:14:37.064Z,51.77
2023-10-16T03:15:37.093Z,52.58
2023-10-16T03:16:37.055Z,59.57
2023-10-16T03:17:37.069Z,61.16
2023-10-16T03:18:37.046Z,59.82
2023-10-16T03:19:37.009Z,59.31
2023-10-16T03:20:37.056Z,58.99
2023-10-16T03:21:37.037Z,58.97
2023-10-16T03:22:37.061Z,52.41
2023-10-16T03:23:36.958Z,52.11
2023-10-16T03:24:37.007Z,51.38
2023-10-16T03:25:36.950Z,57.95
2023-10-16T03:26:36.943Z,59.85
2023-10-16T03:27:36.930Z,58.96
2023-10-16T03:28:38.090Z,58.46
2023-10-16T03:29:36.984Z,58.35
2023-10-16T03:30:37.013Z,58.88
2023-10-16T03:31:36.980Z,59.04
2023-10-16T03:32:37.086Z,58.96
2023-10-16T03:33:36.983Z,59.01
2023-10-16T03:34:37.236Z,58.78
2023-10-16T03:35:36.977Z,59.05
2023-10-16T03:36:36.986Z,59.16
2023-10-16T03:37:36.969Z,59.23
2023-10-16T03:38:36.902Z,59.36
2023-10-16T03:39:37.951Z,58.81
2023-10-16T03:40:38.075Z,57.69
2023-10-16T03:41:36.862Z,52.24
2023-10-16T03:42:36.885Z,54.08
2023-10-16T03:43:36.870Z,53.29
2023-10-16T03:44:37.997Z,52.58
2023-10-16T03:45:37.427Z,58.37
2023-10-16T03:46:36.906Z,60.81
2023-10-16T03:47:36.882Z,59.76
2023-10-16T03:48:36.828Z,58.84
2023-10-16T03:49:38.620Z,58.08
2023-10-16T03:50:37.941Z,58.51
2023-10-16T03:51:36.938Z,52.54
2023-10-16T03:52:36.818Z,52.33
2023-10-16T03:53:36.840Z,52.61
2023-10-16T03:54:37.079Z,53.12
2023-10-16T03:55:36.950Z,60.04
2023-10-16T03:56:36.874Z,60.54
2023-10-16T03:57:36.908Z,59.60
2023-10-16T03:58:37.397Z,59.17
2023-10-16T03:59:36.793Z,59.02
2023-10-16T04:00:36.843Z,59.16
2023-10-16T04:01:36.807Z,55.07
2023-10-16T04:02:37.910Z,52.78
2023-10-16T04:03:36.812Z,53.14
2023-10-16T04:04:36.863Z,52.97
2023-10-16T04:05:36.761Z,57.44
2023-10-16T04:06:36.763Z,60.71
2023-10-16T04:07:36.689Z,60.21
2023-10-16T04:08:36.677Z,59.65
2023-10-16T04:09:36.679Z,59.21
2023-10-16T04:10:36.680Z,59.58
2023-10-16T04:11:36.867Z,54.20
2023-10-16T04:12:36.759Z,53.11
2023-10-16T04:13:36.667Z,53.03
2023-10-16T04:14:36.712Z,52.88
2023-10-16T04:15:37.578Z,59.14
2023-10-16T04:16:36.720Z,60.47
2023-10-16T04:17:36.664Z,59.53
2023-10-16T04:18:36.707Z,59.26
2023-10-16T04:19:36.655Z,58.92
2023-10-16T04:20:36.623Z,59.21
2023-10-16T04:21:36.618Z,59.26
2023-10-16T04:22:36.633Z,55.00
2023-10-16T04:23:36.605Z,54.41
2023-10-16T04:24:36.755Z,54.29
2023-10-16T04:25:36.678Z,54.21
2023-10-16T04:26:36.653Z,59.29
2023-10-16T04:27:36.690Z,61.24
2023-10-16T04:28:36.659Z,60.48
2023-10-16T04:29:36.700Z,59.81
2023-10-16T04:30:36.595Z,59.51
2023-10-16T04:31:36.568Z,59.20
2023-10-16T04:32:36.692Z,56.91
2023-10-16T04:33:36.631Z,53.59
2023-10-16T04:34:36.530Z,54.57
2023-10-16T04:35:36.736Z,55.24
2023-10-16T04:36:36.532Z,56.41
2023-10-16T04:37:36.536Z,60.66
2023-10-16T04:38:36.508Z,60.88
2023-10-16T04:39:36.532Z,60.70
2023-10-16T04:40:36.479Z,59.26
2023-10-16T04:41:36.470Z,59.19
2023-10-16T04:42:36.536Z,58.95
2023-10-16T04:43:36.502Z,58.78
2023-10-16T04:44:36.449Z,59.09
2023-10-16T04:45:36.776Z,59.27
2023-10-16T04:46:36.468Z,59.33
2023-10-16T04:47:36.474Z,58.35
2023-10-16T04:48:36.484Z,53.35
2023-10-16T04:49:36.428Z,53.15
2023-10-16T04:51:50.201Z,53.58
2023-10-16T04:52:38.416Z,59.31
2023-10-16T04:53:36.420Z,60.71
2023-10-16T04:54:36.401Z,59.62
2023-10-16T04:55:36.375Z,59.30
2023-10-16T04:56:36.377Z,59.03
2023-10-16T04:57:36.504Z,58.78
2023-10-16T04:58:36.362Z,58.67
2023-10-16T04:59:36.355Z,58.90
2023-10-16T05:00:38.285Z,59.09
2023-10-16T05:01:36.434Z,56.78
2023-10-16T05:02:36.441Z,52.18
2023-10-16T05:03:36.642Z,52.83
2023-10-16T05:04:36.433Z,56.89
2023-10-16T05:05:36.453Z,60.92
2023-10-16T05:06:37.396Z,60.10
2023-10-16T05:07:36.322Z,59.33
2023-10-16T05:08:36.916Z,59.29
2023-10-16T05:09:36.884Z,59.25
2023-10-16T05:10:36.898Z,59.31
2023-10-16T05:11:36.445Z,59.41
2023-10-16T05:12:36.330Z,58.99
2023-10-16T05:13:36.890Z,59.43
2023-10-16T05:14:36.462Z,59.15
2023-10-16T05:15:36.368Z,59.11
2023-10-16T05:16:36.707Z,58.89
2023-10-16T05:17:36.263Z,58.88
2023-10-16T05:18:36.279Z,59.20
2023-10-16T05:19:36.348Z,59.01
2023-10-16T05:20:36.271Z,58.92
2023-10-16T05:21:36.972Z,58.68
2023-10-16T05:22:36.281Z,59.14
2023-10-16T05:23:36.872Z,59.16
2023-10-16T05:24:36.308Z,59.13
2023-10-16T05:25:36.454Z,59.16
2023-10-16T05:26:36.390Z,59.60
2023-10-16T05:27:36.283Z,59.11
2023-10-16T05:28:36.215Z,59.45
2023-10-16T05:29:50.030Z,59.58
2023-10-16T05:30:38.235Z,59.37
2023-10-16T05:31:36.502Z,60.40
2023-10-16T05:32:36.232Z,59.73
2023-10-16T05:33:36.297Z,59.22
2023-10-16T05:34:36.164Z,59.13
2023-10-16T05:35:36.176Z,59.75
2023-10-16T05:36:36.290Z,57.28
2023-10-16T05:37:36.119Z,54.52
2023-10-16T05:38:36.104Z,54.68
2023-10-16T05:39:36.170Z,53.35
2023-10-16T05:40:36.430Z,57.50
2023-10-16T05:41:36.134Z,61.14
2023-10-16T05:42:36.172Z,60.78
2023-10-16T05:43:36.205Z,59.80
2023-10-16T05:44:36.761Z,59.14
2023-10-16T05:45:36.179Z,59.51
2023-10-16T05:46:36.133Z,59.14
2023-10-16T05:47:36.172Z,59.15
2023-10-16T05:48:36.192Z,58.85
2023-10-16T05:49:36.095Z,58.53
2023-10-16T05:50:36.525Z,53.01
2023-10-16T05:51:36.103Z,54.42
2023-10-16T05:52:36.151Z,54.34
2023-10-16T05:53:36.039Z,53.73
2023-10-16T05:54:36.241Z,60.40
2023-10-16T05:55:36.015Z,61.48
2023-10-16T05:56:36.010Z,60.30
2023-10-16T05:57:36.086Z,59.51
2023-10-16T05:58:36.078Z,59.56
2023-10-16T05:59:36.444Z,59.82
2023-10-16T06:00:37.113Z,59.99
2023-10-16T06:01:36.024Z,59.33
2023-10-16T06:02:36.057Z,54.34
2023-10-16T06:03:36.985Z,54.16
2023-10-16T06:04:36.177Z,54.53
2023-10-16T06:05:36.101Z,54.96
2023-10-16T06:06:35.972Z,60.47
2023-10-16T06:07:36.145Z,53.90
2023-10-16T06:08:36.067Z,55.08
2023-10-16T06:09:36.020Z,56.02
2023-10-16T06:10:35.969Z,60.82
2023-10-16T06:11:36.165Z,61.10
2023-10-16T06:12:36.035Z,59.89
2023-10-16T06:13:36.211Z,59.83
2023-10-16T06:14:37.184Z,59.40
2023-10-16T06:15:36.925Z,59.41
2023-10-16T06:16:36.011Z,59.33
2023-10-16T06:17:35.950Z,53.13
2023-10-16T06:18:35.983Z,53.82
2023-10-16T06:19:35.837Z,53.44
2023-10-16T06:20:35.853Z,54.11
2023-10-16T06:21:36.119Z,61.04
2023-10-16T06:22:36.397Z,61.28
2023-10-16T06:23:36.086Z,60.11
2023-10-16T06:24:35.965Z,59.61
2023-10-16T06:25:35.858Z,59.44
2023-10-16T06:26:35.893Z,59.40
2023-10-16T06:27:35.956Z,59.58
2023-10-16T06:28:35.867Z,58.81
2023-10-16T06:29:36.102Z,59.39
2023-10-16T06:30:35.870Z,59.19
2023-10-16T06:31:35.853Z,58.82
2023-10-16T06:32:35.870Z,58.99
2023-10-16T06:33:35.945Z,58.96
2023-10-16T06:34:35.977Z,59.10
2023-10-16T06:35:35.866Z,56.19
2023-10-16T06:36:35.781Z,53.77
2023-10-16T06:37:35.755Z,53.75
2023-10-16T06:38:35.747Z,53.60
2023-10-16T06:39:35.860Z,52.75
2023-10-16T06:40:35.756Z,55.99
2023-10-16T06:41:35.772Z,61.38
2023-10-16T06:42:35.728Z,60.21
2023-10-16T06:43:35.705Z,59.47
2023-10-16T06:44:35.957Z,59.07
2023-10-16T06:45:35.841Z,59.11
2023-10-16T06:46:35.739Z,59.13
2023-10-16T06:47:35.685Z,59.00
2023-10-16T06:48:35.716Z,59.05
2023-10-16T06:49:35.658Z,58.85
2023-10-16T06:50:35.677Z,59.00
2023-10-16T06:51:35.720Z,58.87
2023-10-16T06:52:35.671Z,53.24
2023-10-16T06:53:35.884Z,53.49
2023-10-16T06:54:35.749Z,54.49
2023-10-16T06:55:35.671Z,52.79
2023-10-16T06:56:35.795Z,52.28
2023-10-16T06:57:35.814Z,54.02
2023-10-16T06:58:35.746Z,61.14
2023-10-16T06:59:35.588Z,61.07
2023-10-16T07:00:35.776Z,59.56
2023-10-16T07:01:35.635Z,58.94
2023-10-16T07:02:35.621Z,58.85
2023-10-16T07:03:35.721Z,58.90
2023-10-16T07:04:35.628Z,59.17
2023-10-16T07:05:35.540Z,58.64
2023-10-16T07:06:35.557Z,54.06
2023-10-16T07:07:36.078Z,52.54
2023-10-16T07:08:35.562Z,52.69
2023-10-16T07:09:35.566Z,53.07
2023-10-16T07:10:35.583Z,52.44
2023-10-16T07:11:35.548Z,52.79
2023-10-16T07:12:35.863Z,52.48
2023-10-16T07:13:35.508Z,52.57
2023-10-16T07:14:35.497Z,52.73
2023-10-16T07:15:35.539Z,53.75
2023-10-16T07:16:37.677Z,52.87
2023-10-16T07:17:37.247Z,58.94
2023-10-16T07:18:36.508Z,61.29
2023-10-16T07:19:35.469Z,59.55
2023-10-16T07:20:35.495Z,59.01
2023-10-16T07:21:36.069Z,59.03
2023-10-16T07:22:35.471Z,59.13
2023-10-16T07:23:35.453Z,59.34
2023-10-16T07:24:35.466Z,59.02
2023-10-16T07:25:35.422Z,56.02
2023-10-16T07:26:36.442Z,51.67
2023-10-16T07:27:35.525Z,52.33
2023-10-16T07:28:35.428Z,52.87
2023-10-16T07:29:35.401Z,51.95
2023-10-16T07:30:35.408Z,52.46
2023-10-16T07:31:35.431Z,52.08
2023-10-16T07:32:35.387Z,52.04
2023-10-16T07:33:35.848Z,52.30
2023-10-16T07:34:35.395Z,53.20
2023-10-16T07:35:35.380Z,52.49
2023-10-16T07:36:35.394Z,52.79
2023-10-16T07:37:35.359Z,53.10
2023-10-16T07:38:35.354Z,53.02
2023-10-16T07:39:35.441Z,52.56
2023-10-16T07:40:35.388Z,52.30
2023-10-16T07:41:35.441Z,52.40
2023-10-16T07:42:35.333Z,52.67
2023-10-16T07:43:35.318Z,52.22
2023-10-16T07:44:35.299Z,52.37
2023-10-16T07:45:36.718Z,52.00
2023-10-16T07:46:36.304Z,51.97
2023-10-16T07:47:35.299Z,53.40
2023-10-16T07:48:35.306Z,52.92
2023-10-16T07:49:35.305Z,51.95
2023-10-16T07:50:35.296Z,52.11
2023-10-16T07:51:36.323Z,52.56
2023-10-16T07:52:35.290Z,54.50
2023-10-16T07:53:35.308Z,52.71
2023-10-16T07:54:35.298Z,53.07
2023-10-16T07:55:35.292Z,53.10
2023-10-16T07:56:35.319Z,53.76
2023-10-16T07:57:35.275Z,52.83
2023-10-16T07:58:35.219Z,52.27
2023-10-16T07:59:37.559Z,53.23
2023-10-16T08:00:35.216Z,52.94
2023-10-16T08:01:35.432Z,51.95
2023-10-16T08:02:35.215Z,52.82
2023-10-16T08:03:35.265Z,52.01
2023-10-16T08:04:35.453Z,52.14
2023-10-16T08:05:35.186Z,52.40
2023-10-16T08:06:35.334Z,52.71
2023-10-16T08:07:35.169Z,52.61
2023-10-16T08:08:35.258Z,52.45
2023-10-16T08:09:35.174Z,53.23
2023-10-16T08:10:35.150Z,52.15
2023-10-16T08:11:35.222Z,53.17
2023-10-16T08:12:35.178Z,52.18
2023-10-16T08:13:35.151Z,53.46
2023-10-16T08:14:35.210Z,52.84
2023-10-16T08:15:35.176Z,52.89
2023-10-16T08:16:35.306Z,53.17
2023-10-16T08:17:35.217Z,53.43
2023-10-16T08:18:35.164Z,52.61
2023-10-16T08:19:35.099Z,52.13
2023-10-16T08:20:35.060Z,51.95
2023-10-16T08:21:36.140Z,53.44
2023-10-16T08:22:35.075Z,54.84
2023-10-16T08:23:35.914Z,52.83
2023-10-16T08:24:35.173Z,54.83
2023-10-16T08:25:35.037Z,52.45
2023-10-16T08:26:35.037Z,52.68
2023-10-16T08:27:35.083Z,53.97
2023-10-16T08:28:35.007Z,53.50
2023-10-16T08:29:35.832Z,51.97
2023-10-16T08:30:35.349Z,53.60
2023-10-16T08:31:35.020Z,53.42
2023-10-16T08:32:35.001Z,52.97
2023-10-16T08:33:35.882Z,53.15
2023-10-16T08:34:35.040Z,53.12
2023-10-16T08:35:34.981Z,52.47
2023-10-16T08:36:35.126Z,52.96
2023-10-16T08:37:50.568Z,54.56
2023-10-16T08:38:36.948Z,53.40
2023-10-16T08:39:36.435Z,52.96
2023-10-16T08:40:34.946Z,52.18
2023-10-16T08:41:34.949Z,52.84
2023-10-16T08:42:35.009Z,52.69
2023-10-16T08:43:35.003Z,52.85
2023-10-16T08:44:34.917Z,53.18
2023-10-16T08:45:35.907Z,53.92
2023-10-16T08:46:34.963Z,53.21
2023-10-16T08:47:34.908Z,53.20
2023-10-16T08:48:34.908Z,53.17
2023-10-16T08:49:44.441Z,53.19
2023-10-16T08:50:36.889Z,53.38
2023-10-16T08:51:34.922Z,53.02
2023-10-16T08:52:34.865Z,53.53
2023-10-16T08:53:35.399Z,52.43
2023-10-16T08:54:35.893Z,53.70
2023-10-16T08:55:34.849Z,53.69
2023-10-16T08:56:34.852Z,53.21
2023-10-16T08:57:34.843Z,52.97
2023-10-16T08:58:34.815Z,52.74
2023-10-16T08:59:34.958Z,53.70
2023-10-16T09:00:34.854Z,54.14
2023-10-16T09:01:35.001Z,52.62
2023-10-16T09:02:35.810Z,52.81
2023-10-16T09:03:35.297Z,52.75
2023-10-16T09:04:34.863Z,54.98
2023-10-16T09:05:34.811Z,53.65
2023-10-16T09:06:34.762Z,54.06
2023-10-16T09:07:34.785Z,54.34
2023-10-16T09:08:34.739Z,52.74
2023-10-16T09:09:34.778Z,53.70
2023-10-16T09:10:34.903Z,54.22
2023-10-16T09:11:34.735Z,52.72
2023-10-16T09:12:34.757Z,52.35
2023-10-16T09:13:34.724Z,53.92
2023-10-16T09:14:34.729Z,53.23
2023-10-16T09:15:34.725Z,53.79
2023-10-16T09:16:34.742Z,52.68
2023-10-16T09:17:34.707Z,53.05
2023-10-16T09:18:34.763Z,53.97
2023-10-16T09:19:34.738Z,52.28
2023-10-16T09:20:34.831Z,53.38
2023-10-16T09:21:34.675Z,53.42
2023-10-16T09:22:35.640Z,53.99
2023-10-16T09:23:34.653Z,52.69
2023-10-16T09:24:34.657Z,52.53
2023-10-16T09:25:38.346Z,52.42
2023-10-16T09:26:35.607Z,53.34
2023-10-16T09:27:34.634Z,55.06
2023-10-16T09:28:34.651Z,54.10
2023-10-16T09:29:36.080Z,53.30
2023-10-16T09:30:35.697Z,52.48
2023-10-16T09:31:34.740Z,53.15
2023-10-16T09:32:34.681Z,52.51
2023-10-16T09:33:34.621Z,52.60
2023-10-16T09:34:34.565Z,52.97
2023-10-16T09:35:34.882Z,53.50
2023-10-16T09:36:34.619Z,52.26
2023-10-16T09:37:34.570Z,53.21
2023-10-16T09:38:34.680Z,52.60
2023-10-16T09:39:34.549Z,53.23
2023-10-16T09:40:36.496Z,52.53
2023-10-16T09:41:34.514Z,53.63
2023-10-16T09:42:34.550Z,52.75
2023-10-16T09:43:34.491Z,52.21
2023-10-16T09:44:34.482Z,52.85
2023-10-16T09:45:34.503Z,53.59
2023-10-16T09:46:34.501Z,53.71
2023-10-16T09:47:34.492Z,53.93
2023-10-16T09:48:34.665Z,52.39
2023-10-16T09:49:34.500Z,52.23
2023-10-16T09:50:34.463Z,52.37
2023-10-16T09:51:34.524Z,53.73
2023-10-16T09:52:34.534Z,53.09
2023-10-16T09:53:34.436Z,52.64
2023-10-16T09:54:34.441Z,51.23
2023-10-16T09:55:34.428Z,51.85
2023-10-16T09:56:34.457Z,52.48
2023-10-16T09:57:34.429Z,52.34
2023-10-16T09:58:34.381Z,51.77
2023-10-16T09:59:35.427Z,52.09
2023-10-16T10:00:34.398Z,52.42
2023-10-16T10:01:34.492Z,51.72
2023-10-16T10:02:34.429Z,52.63
2023-10-16T10:03:34.468Z,51.65
2023-10-16T10:04:34.534Z,52.22
2023-10-16T10:05:34.344Z,53.21
2023-10-16T10:06:34.359Z,52.11
2023-10-16T10:07:34.352Z,52.35
2023-10-16T10:08:35.552Z,52.39
2023-10-16T10:09:34.350Z,51.54
2023-10-16T10:10:37.433Z,52.62
2023-10-16T10:11:34.316Z,52.06
2023-10-16T10:12:34.353Z,51.57
2023-10-16T10:13:34.291Z,50.65
2023-10-16T10:14:34.294Z,50.56
2023-10-16T10:15:35.359Z,53.58
2023-10-16T10:16:34.286Z,52.96
2023-10-16T10:17:34.255Z,52.94
2023-10-16T10:18:34.333Z,52.97
2023-10-16T10:19:34.308Z,50.64
2023-10-16T10:20:34.330Z,52.18
2023-10-16T10:21:34.274Z,51.77
2023-10-16T10:22:34.213Z,52.08
2023-10-16T10:23:34.245Z,52.31
2023-10-16T10:24:34.372Z,51.87
2023-10-16T10:25:34.525Z,52.54
2023-10-16T10:26:34.260Z,53.25
2023-10-16T10:27:34.222Z,53.34
2023-10-16T10:28:34.176Z,51.97
2023-10-16T10:29:34.201Z,52.83
2023-10-16T10:30:34.220Z,53.97
2023-10-16T10:31:34.247Z,53.02
2023-10-16T10:32:34.184Z,53.05
2023-10-16T10:33:34.189Z,51.13
2023-10-16T10:34:34.294Z,52.48
2023-10-16T10:35:34.142Z,52.24
2023-10-16T10:36:35.292Z,51.83
2023-10-16T10:37:34.114Z,52.33
2023-10-16T10:38:34.162Z,52.09
2023-10-16T10:39:34.300Z,50.15
2023-10-16T10:40:34.088Z,51.48
2023-10-16T10:41:34.080Z,53.28
2023-10-16T10:42:34.138Z,52.06
2023-10-16T10:43:34.091Z,51.56
2023-10-16T10:44:34.102Z,52.49
2023-10-16T10:45:34.062Z,52.49
2023-10-16T10:46:34.197Z,51.82
2023-10-16T10:47:34.293Z,51.35
2023-10-16T10:48:34.118Z,51.73
2023-10-16T10:49:34.136Z,51.81
2023-10-16T10:50:34.060Z,51.13
2023-10-16T10:51:34.080Z,51.31
2023-10-16T10:52:34.575Z,52.39
2023-10-16T10:53:34.213Z,52.52
2023-10-16T10:54:34.396Z,51.76
2023-10-16T10:55:34.318Z,51.42
2023-10-16T10:56:34.090Z,51.85
2023-10-16T10:57:34.066Z,51.85
2023-10-16T10:58:33.999Z,52.60
2023-10-16T10:59:34.865Z,52.15
2023-10-16T11:00:35.352Z,52.90
2023-10-16T11:01:34.014Z,52.23
2023-10-16T11:02:34.035Z,51.35
2023-10-16T11:03:34.145Z,51.82
2023-10-16T11:04:34.117Z,52.48
2023-10-16T11:05:33.961Z,51.49
2023-10-16T11:06:34.031Z,52.24
2023-10-16T11:07:36.154Z,50.79
2023-10-16T11:08:33.998Z,49.61
2023-10-16T11:09:34.012Z,50.64
2023-10-16T11:10:34.542Z,51.84
2023-10-16T11:11:33.927Z,51.75
2023-10-16T11:12:33.935Z,51.36
2023-10-16T11:13:33.867Z,54.72
2023-10-16T11:14:33.900Z,50.04
2023-10-16T11:15:33.884Z,49.52
2023-10-16T11:16:33.921Z,52.07
2023-10-16T11:17:33.893Z,52.91
2023-10-16T11:18:34.044Z,52.14
2023-10-16T11:19:33.859Z,51.67
2023-10-16T11:20:33.830Z,50.67
2023-10-16T11:21:35.318Z,52.93
2023-10-16T11:22:33.801Z,52.80
2023-10-16T11:23:33.808Z,52.49
2023-10-16T11:24:35.024Z,50.35
2023-10-16T11:25:33.813Z,48.00
2023-10-16T11:26:34.455Z,49.05
2023-10-16T11:27:33.840Z,51.22
2023-10-16T11:28:33.878Z,51.46
2023-10-16T11:29:33.840Z,50.75
2023-10-16T11:30:33.875Z,51.29
2023-10-16T11:31:33.842Z,52.46
2023-10-16T11:32:33.774Z,51.40
2023-10-16T11:33:33.867Z,48.45
2023-10-16T11:34:33.934Z,51.05
2023-10-16T11:35:33.745Z,52.27
2023-10-16T11:36:39.593Z,51.91
2023-10-16T11:37:35.700Z,51.25
2023-10-16T11:38:33.709Z,51.98
2023-10-16T11:39:33.774Z,52.37
2023-10-16T11:40:33.808Z,52.35
2023-10-16T11:41:33.705Z,50.55
2023-10-16T11:42:33.707Z,50.02
2023-10-16T11:43:33.679Z,49.15
2023-10-16T11:44:33.855Z,50.62
2023-10-16T11:45:33.697Z,51.48
2023-10-16T11:46:33.723Z,51.36
2023-10-16T11:47:33.676Z,51.94
2023-10-16T11:48:33.704Z,51.03
2023-10-16T11:49:33.667Z,50.79
2023-10-16T11:50:33.637Z,50.72
2023-10-16T11:51:33.683Z,50.25
2023-10-16T11:52:33.637Z,50.00
2023-10-16T11:53:34.837Z,49.78
2023-10-16T11:54:33.673Z,51.11
2023-10-16T11:55:33.631Z,51.24
2023-10-16T11:56:33.676Z,49.95
2023-10-16T11:57:33.632Z,48.44
2023-10-16T11:58:33.599Z,49.00
2023-10-16T11:59:33.586Z,49.72
2023-10-16T12:00:33.557Z,49.74
2023-10-16T12:01:43.295Z,48.78
2023-10-16T12:02:36.550Z,49.91
2023-10-16T12:03:34.661Z,47.20
2023-10-16T12:04:33.781Z,48.44
2023-10-16T12:05:33.546Z,49.94
2023-10-16T12:06:33.599Z,50.29
2023-10-16T12:07:33.525Z,50.63
2023-10-16T12:08:33.622Z,51.91
2023-10-16T12:09:33.556Z,51.77
2023-10-16T12:10:33.506Z,51.59
2023-10-16T12:11:33.488Z,51.15
2023-10-16T12:12:33.701Z,50.48
2023-10-16T12:13:33.488Z,50.83
2023-10-16T12:14:33.468Z,49.81
2023-10-16T12:15:33.523Z,52.07
2023-10-16T12:16:36.694Z,51.62
2023-10-16T12:17:34.465Z,51.65
2023-10-16T12:18:33.482Z,50.49
2023-10-16T12:19:33.427Z,50.94
2023-10-16T12:20:33.498Z,50.50
2023-10-16T12:21:33.573Z,50.41
2023-10-16T12:22:33.976Z,49.85
2023-10-16T12:23:33.410Z,51.04
2023-10-16T12:24:33.448Z,51.27
2023-10-16T12:25:33.377Z,50.59
2023-10-16T12:26:33.398Z,50.78
2023-10-16T12:27:33.400Z,50.17
2023-10-16T12:28:34.116Z,50.15
2023-10-16T12:29:33.370Z,50.23
2023-10-16T12:30:33.364Z,50.37
2023-10-16T12:31:33.384Z,50.74
2023-10-16T12:32:33.372Z,50.88
2023-10-16T12:33:34.364Z,50.07
2023-10-16T12:34:33.326Z,49.49
2023-10-16T12:35:33.316Z,50.21
2023-10-16T12:36:33.337Z,49.58
2023-10-16T12:37:33.330Z,49.82
2023-10-16T12:38:33.296Z,50.25
2023-10-16T12:39:33.322Z,49.68
2023-10-16T12:40:33.283Z,50.09
2023-10-16T12:41:34.410Z,48.06
2023-10-16T12:42:33.418Z,49.37
2023-10-16T12:43:33.271Z,50.17
2023-10-16T12:44:33.372Z,49.72
2023-10-16T12:45:33.321Z,49.64
2023-10-16T12:46:33.354Z,49.11
2023-10-16T12:47:43.987Z,49.63
2023-10-16T12:48:35.307Z,51.26
2023-10-16T12:49:33.207Z,50.33
2023-10-16T12:50:33.314Z,51.05
2023-10-16T12:51:33.217Z,50.27
2023-10-16T12:52:33.197Z,50.63
2023-10-16T12:53:33.199Z,50.82